sensor_id;sensor_type;location;lat;lon;timestamp;P1;durP1;ratioP1;P2;durP2;ratioP2
15177;SDS011;7689;53.612;-2.416;2022-08-14T00:01:08;3.80;;;3.50;;
15177;SDS011;7689;53.612;-2.416;2022-08-14T00:03:34;4.45;;;3.83;;
15177;SDS011;7689;53.612;-2.416;2022-08-14T00:06:00;5.45;;;3.50;;
15177;SDS011;7689;53.612;-2.416;2022-08-14T00:08:27;6.70;;;4.30;;
15177;SDS011;7689;53.612;-2.416;2022-08-14T00:10:53;4.28;;;3.97;;
15177;SDS011;7689;53.612;-2.416;2022-08-14T00:13:20;3.88;;;3.55;;
15177;SDS011;7689;53.612;-2.416;2022-08-14T00:15:49;6.43;;;4.00;;
15177;SDS011;7689;53.612;-2.416;2022-08-14T00:18:19;5.07;;;4.10;;
15177;SDS011;7689;53.612;-2.416;2022-08-14T00:20:46;3.70;;;3.40;;
15177;SDS011;7689;53.612;-2.416;2022-08-14T00:23:13;3.78;;;3.55;;
15177;SDS011;7689;53.612;-2.416;2022-08-14T00:25:40;3.47;;;3.28;;
15177;SDS011;7689;53.612;-2.416;2022-08-14T00:28:08;3.47;;;3.15;;
15177;SDS011;7689;53.612;-2.416;2022-08-14T00:30:35;3.30;;;3.00;;
15177;SDS011;7689;53.612;-2.416;2022-08-14T00:33:01;3.95;;;3.65;;
15177;SDS011;7689;53.612;-2.416;2022-08-14T00:35:29;4.28;;;3.30;;
15177;SDS011;7689;53.612;-2.416;2022-08-14T00:37:55;4.85;;;3.40;;
15177;SDS011;7689;53.612;-2.416;2022-08-14T00:40:21;3.40;;;3.20;;
15177;SDS011;7689;53.612;-2.416;2022-08-14T00:42:47;5.15;;;3.63;;
15177;SDS011;7689;53.612;-2.416;2022-08-14T00:45:13;3.08;;;2.88;;
15177;SDS011;7689;53.612;-2.416;2022-08-14T00:47:41;5.63;;;3.10;;
15177;SDS011;7689;53.612;-2.416;2022-08-14T00:50:09;3.38;;;3.10;;
15177;SDS011;7689;53.612;-2.416;2022-08-14T00:52:37;3.55;;;3.35;;
15177;SDS011;7689;53.612;-2.416;2022-08-14T00:55:04;4.32;;;3.22;;
15177;SDS011;7689;53.612;-2.416;2022-08-14T00:57:32;4.45;;;3.30;;
15177;SDS011;7689;53.612;-2.416;2022-08-14T01:00:00;3.75;;;3.28;;
15177;SDS011;7689;53.612;-2.416;2022-08-14T01:02:29;3.55;;;3.10;;
15177;SDS011;7689;53.612;-2.416;2022-08-14T01:04:56;4.25;;;3.05;;
15177;SDS011;7689;53.612;-2.416;2022-08-14T01:07:24;3.17;;;2.95;;
15177;SDS011;7689;53.612;-2.416;2022-08-14T01:10:00;5.47;;;3.88;;
15177;SDS011;7689;53.612;-2.416;2022-08-14T01:12:29;3.35;;;3.15;;
15177;SDS011;7689;53.612;-2.416;2022-08-14T01:14:56;3.53;;;3.28;;
15177;SDS011;7689;53.612;-2.416;2022-08-14T01:17:23;3.47;;;3.17;;
15177;SDS011;7689;53.612;-2.416;2022-08-14T01:20:10;5.95;;;3.55;;
15177;SDS011;7689;53.612;-2.416;2022-08-14T01:22:54;3.85;;;3.58;;
15177;SDS011;7689;53.612;-2.416;2022-08-14T01:25:20;7.30;;;3.10;;
15177;SDS011;7689;53.612;-2.416;2022-08-14T01:27:46;3.50;;;3.30;;
15177;SDS011;7689;53.612;-2.416;2022-08-14T01:30:13;3.40;;;3.20;;
15177;SDS011;7689;53.612;-2.416;2022-08-14T01:32:39;3.72;;;3.25;;
15177;SDS011;7689;53.612;-2.416;2022-08-14T01:35:05;4.20;;;3.70;;
15177;SDS011;7689;53.612;-2.416;2022-08-14T01:37:32;4.53;;;3.80;;
15177;SDS011;7689;53.612;-2.416;2022-08-14T01:39:58;5.25;;;3.35;;
15177;SDS011;7689;53.612;-2.416;2022-08-14T01:42:25;4.00;;;3.70;;
15177;SDS011;7689;53.612;-2.416;2022-08-14T01:44:53;3.80;;;3.50;;
15177;SDS011;7689;53.612;-2.416;2022-08-14T01:47:21;3.53;;;3.22;;
15177;SDS011;7689;53.612;-2.416;2022-08-14T01:49:48;6.82;;;4.55;;
15177;SDS011;7689;53.612;-2.416;2022-08-14T01:52:15;4.18;;;3.88;;
15177;SDS011;7689;53.612;-2.416;2022-08-14T01:54:42;4.30;;;3.90;;
15177;SDS011;7689;53.612;-2.416;2022-08-14T01:57:07;7.85;;;5.22;;
15177;SDS011;7689;53.612;-2.416;2022-08-14T01:59:35;4.70;;;4.22;;
15177;SDS011;7689;53.612;-2.416;2022-08-14T02:02:04;5.18;;;4.85;;
15177;SDS011;7689;53.612;-2.416;2022-08-14T02:04:36;4.35;;;3.95;;
15177;SDS011;7689;53.612;-2.416;2022-08-14T02:07:03;8.48;;;4.28;;
15177;SDS011;7689;53.612;-2.416;2022-08-14T02:09:29;4.68;;;4.20;;
15177;SDS011;7689;53.612;-2.416;2022-08-14T02:11:59;5.93;;;4.60;;
15177;SDS011;7689;53.612;-2.416;2022-08-14T02:14:27;5.32;;;4.40;;
15177;SDS011;7689;53.612;-2.416;2022-08-14T02:16:53;5.13;;;4.63;;
15177;SDS011;7689;53.612;-2.416;2022-08-14T02:19:22;8.20;;;5.05;;
15177;SDS011;7689;53.612;-2.416;2022-08-14T02:21:51;5.65;;;4.70;;
15177;SDS011;7689;53.612;-2.416;2022-08-14T02:24:20;5.35;;;4.90;;
15177;SDS011;7689;53.612;-2.416;2022-08-14T02:26:47;5.78;;;4.80;;
15177;SDS011;7689;53.612;-2.416;2022-08-14T02:29:15;4.93;;;4.53;;
15177;SDS011;7689;53.612;-2.416;2022-08-14T02:31:46;6.55;;;4.90;;
15177;SDS011;7689;53.612;-2.416;2022-08-14T02:34:16;5.53;;;5.03;;
15177;SDS011;7689;53.612;-2.416;2022-08-14T02:36:43;5.53;;;5.03;;
15177;SDS011;7689;53.612;-2.416;2022-08-14T02:39:11;7.07;;;5.05;;
15177;SDS011;7689;53.612;-2.416;2022-08-14T02:41:38;6.57;;;4.75;;
15177;SDS011;7689;53.612;-2.416;2022-08-14T02:44:05;5.07;;;4.68;;
15177;SDS011;7689;53.612;-2.416;2022-08-14T02:46:33;4.93;;;4.50;;
15177;SDS011;7689;53.612;-2.416;2022-08-14T02:48:59;5.28;;;4.78;;
15177;SDS011;7689;53.612;-2.416;2022-08-14T02:51:25;5.00;;;4.57;;
15177;SDS011;7689;53.612;-2.416;2022-08-14T02:53:53;5.53;;;4.97;;
15177;SDS011;7689;53.612;-2.416;2022-08-14T02:56:20;6.50;;;4.75;;
15177;SDS011;7689;53.612;-2.416;2022-08-14T02:58:47;6.20;;;4.93;;
15177;SDS011;7689;53.612;-2.416;2022-08-14T03:01:15;10.25;;;5.70;;
15177;SDS011;7689;53.612;-2.416;2022-08-14T03:03:43;5.80;;;5.30;;
15177;SDS011;7689;53.612;-2.416;2022-08-14T03:06:09;5.95;;;4.97;;
15177;SDS011;7689;53.612;-2.416;2022-08-14T03:08:37;4.80;;;4.40;;
15177;SDS011;7689;53.612;-2.416;2022-08-14T03:11:04;5.40;;;4.00;;
15177;SDS011;7689;53.612;-2.416;2022-08-14T03:13:33;4.85;;;4.43;;
15177;SDS011;7689;53.612;-2.416;2022-08-14T03:16:08;6.65;;;4.70;;
15177;SDS011;7689;53.612;-2.416;2022-08-14T03:18:38;4.20;;;3.90;;
15177;SDS011;7689;53.612;-2.416;2022-08-14T03:21:16;4.75;;;4.35;;
15177;SDS011;7689;53.612;-2.416;2022-08-14T03:23:45;4.20;;;3.92;;
15177;SDS011;7689;53.612;-2.416;2022-08-14T03:26:13;4.85;;;4.40;;
15177;SDS011;7689;53.612;-2.416;2022-08-14T03:28:41;3.88;;;3.58;;
15177;SDS011;7689;53.612;-2.416;2022-08-14T03:31:09;4.43;;;4.13;;
15177;SDS011;7689;53.612;-2.416;2022-08-14T03:33:36;4.32;;;3.97;;
15177;SDS011;7689;53.612;-2.416;2022-08-14T03:36:09;4.95;;;4.43;;
15177;SDS011;7689;53.612;-2.416;2022-08-14T03:38:38;4.70;;;3.88;;
15177;SDS011;7689;53.612;-2.416;2022-08-14T03:41:07;4.43;;;4.00;;
15177;SDS011;7689;53.612;-2.416;2022-08-14T03:43:38;6.88;;;5.30;;
15177;SDS011;7689;53.612;-2.416;2022-08-14T03:46:07;6.78;;;5.28;;
15177;SDS011;7689;53.612;-2.416;2022-08-14T03:48:37;6.43;;;4.60;;
15177;SDS011;7689;53.612;-2.416;2022-08-14T03:51:04;5.10;;;3.60;;
15177;SDS011;7689;53.612;-2.416;2022-08-14T03:53:32;4.82;;;4.43;;
15177;SDS011;7689;53.612;-2.416;2022-08-14T03:56:01;4.82;;;4.22;;
15177;SDS011;7689;53.612;-2.416;2022-08-14T03:58:31;5.38;;;4.80;;
15177;SDS011;7689;53.612;-2.416;2022-08-14T04:00:58;7.25;;;5.43;;
15177;SDS011;7689;53.612;-2.416;2022-08-14T04:03:24;6.07;;;5.47;;
15177;SDS011;7689;53.612;-2.416;2022-08-14T04:05:51;4.75;;;4.38;;
15177;SDS011;7689;53.612;-2.416;2022-08-14T04:08:17;5.18;;;4.70;;
15177;SDS011;7689;53.612;-2.416;2022-08-14T04:10:44;4.18;;;3.92;;
15177;SDS011;7689;53.612;-2.416;2022-08-14T04:13:11;4.57;;;4.22;;
15177;SDS011;7689;53.612;-2.416;2022-08-14T04:15:42;4.20;;;3.85;;
15177;SDS011;7689;53.612;-2.416;2022-08-14T04:18:08;5.20;;;4.63;;
15177;SDS011;7689;53.612;-2.416;2022-08-14T04:20:34;5.32;;;4.75;;
15177;SDS011;7689;53.612;-2.416;2022-08-14T04:23:00;5.35;;;4.95;;
15177;SDS011;7689;53.612;-2.416;2022-08-14T04:25:25;5.90;;;5.35;;
15177;SDS011;7689;53.612;-2.416;2022-08-14T04:27:51;5.10;;;4.57;;
15177;SDS011;7689;53.612;-2.416;2022-08-14T04:30:18;6.90;;;4.72;;
15177;SDS011;7689;53.612;-2.416;2022-08-14T04:32:44;5.07;;;4.70;;
15177;SDS011;7689;53.612;-2.416;2022-08-14T04:35:10;5.20;;;4.65;;
15177;SDS011;7689;53.612;-2.416;2022-08-14T04:37:36;5.35;;;4.95;;
15177;SDS011;7689;53.612;-2.416;2022-08-14T04:40:20;4.60;;;4.20;;
15177;SDS011;7689;53.612;-2.416;2022-08-14T04:43:04;5.55;;;4.70;;
15177;SDS011;7689;53.612;-2.416;2022-08-14T04:45:48;4.32;;;3.92;;
15177;SDS011;7689;53.612;-2.416;2022-08-14T04:48:14;5.25;;;4.75;;
15177;SDS011;7689;53.612;-2.416;2022-08-14T04:50:49;5.30;;;4.80;;
15177;SDS011;7689;53.612;-2.416;2022-08-14T04:53:17;4.72;;;4.35;;
15177;SDS011;7689;53.612;-2.416;2022-08-14T04:55:45;5.07;;;4.78;;
15177;SDS011;7689;53.612;-2.416;2022-08-14T04:58:13;5.10;;;4.68;;
15177;SDS011;7689;53.612;-2.416;2022-08-14T05:00:39;5.05;;;4.68;;
15177;SDS011;7689;53.612;-2.416;2022-08-14T05:03:06;5.60;;;4.82;;
15177;SDS011;7689;53.612;-2.416;2022-08-14T05:05:32;4.72;;;4.22;;
15177;SDS011;7689;53.612;-2.416;2022-08-14T05:08:08;5.38;;;4.35;;
15177;SDS011;7689;53.612;-2.416;2022-08-14T05:10:42;5.70;;;4.95;;
15177;SDS011;7689;53.612;-2.416;2022-08-14T05:13:10;5.30;;;4.07;;
15177;SDS011;7689;53.612;-2.416;2022-08-14T05:15:40;5.55;;;4.85;;
15177;SDS011;7689;53.612;-2.416;2022-08-14T05:18:07;7.15;;;4.63;;
15177;SDS011;7689;53.612;-2.416;2022-08-14T05:20:46;4.50;;;4.20;;
15177;SDS011;7689;53.612;-2.416;2022-08-14T05:23:14;5.20;;;4.28;;
15177;SDS011;7689;53.612;-2.416;2022-08-14T05:25:42;4.57;;;4.28;;
15177;SDS011;7689;53.612;-2.416;2022-08-14T05:28:12;5.00;;;4.60;;
15177;SDS011;7689;53.612;-2.416;2022-08-14T05:30:43;4.90;;;4.43;;
15177;SDS011;7689;53.612;-2.416;2022-08-14T05:33:33;6.35;;;4.50;;
15177;SDS011;7689;53.612;-2.416;2022-08-14T05:36:00;5.50;;;4.50;;
15177;SDS011;7689;53.612;-2.416;2022-08-14T05:38:42;5.70;;;4.07;;
15177;SDS011;7689;53.612;-2.416;2022-08-14T05:41:17;3.97;;;3.75;;
15177;SDS011;7689;53.612;-2.416;2022-08-14T05:43:44;5.53;;;4.85;;
15177;SDS011;7689;53.612;-2.416;2022-08-14T05:46:12;4.53;;;4.13;;
15177;SDS011;7689;53.612;-2.416;2022-08-14T05:48:42;4.65;;;4.35;;
15177;SDS011;7689;53.612;-2.416;2022-08-14T05:51:13;4.53;;;4.20;;
15177;SDS011;7689;53.612;-2.416;2022-08-14T05:53:39;7.50;;;3.97;;
15177;SDS011;7689;53.612;-2.416;2022-08-14T05:56:05;4.82;;;4.28;;
15177;SDS011;7689;53.612;-2.416;2022-08-14T05:58:30;4.38;;;4.05;;
15177;SDS011;7689;53.612;-2.416;2022-08-14T06:00:56;4.57;;;4.28;;
15177;SDS011;7689;53.612;-2.416;2022-08-14T06:03:22;5.68;;;4.82;;
15177;SDS011;7689;53.612;-2.416;2022-08-14T06:05:49;6.22;;;4.30;;
15177;SDS011;7689;53.612;-2.416;2022-08-14T06:10:42;6.57;;;5.30;;
15177;SDS011;7689;53.612;-2.416;2022-08-14T06:13:09;5.00;;;4.60;;
15177;SDS011;7689;53.612;-2.416;2022-08-14T06:15:35;4.93;;;4.40;;
15177;SDS011;7689;53.612;-2.416;2022-08-14T06:18:01;4.50;;;4.20;;
15177;SDS011;7689;53.612;-2.416;2022-08-14T06:20:27;4.25;;;3.95;;
15177;SDS011;7689;53.612;-2.416;2022-08-14T06:22:53;5.10;;;4.32;;
15177;SDS011;7689;53.612;-2.416;2022-08-14T06:25:19;4.57;;;4.20;;
15177;SDS011;7689;53.612;-2.416;2022-08-14T06:27:46;4.07;;;3.80;;
15177;SDS011;7689;53.612;-2.416;2022-08-14T06:30:14;4.30;;;3.95;;
15177;SDS011;7689;53.612;-2.416;2022-08-14T06:32:42;5.15;;;4.10;;
15177;SDS011;7689;53.612;-2.416;2022-08-14T06:35:09;5.10;;;4.78;;
15177;SDS011;7689;53.612;-2.416;2022-08-14T06:37:46;5.22;;;3.97;;
15177;SDS011;7689;53.612;-2.416;2022-08-14T06:40:26;4.45;;;4.15;;
15177;SDS011;7689;53.612;-2.416;2022-08-14T06:42:57;5.10;;;4.65;;
15177;SDS011;7689;53.612;-2.416;2022-08-14T06:45:25;5.57;;;5.10;;
15177;SDS011;7689;53.612;-2.416;2022-08-14T06:47:50;5.15;;;4.75;;
15177;SDS011;7689;53.612;-2.416;2022-08-14T06:50:18;5.68;;;5.13;;
15177;SDS011;7689;53.612;-2.416;2022-08-14T06:52:45;4.88;;;4.47;;
15177;SDS011;7689;53.612;-2.416;2022-08-14T06:55:13;7.38;;;5.80;;
15177;SDS011;7689;53.612;-2.416;2022-08-14T06:57:41;5.38;;;5.03;;
15177;SDS011;7689;53.612;-2.416;2022-08-14T07:00:17;6.05;;;4.40;;
15177;SDS011;7689;53.612;-2.416;2022-08-14T07:02:44;6.00;;;5.32;;
15177;SDS011;7689;53.612;-2.416;2022-08-14T07:05:29;4.57;;;4.28;;
15177;SDS011;7689;53.612;-2.416;2022-08-14T07:10:49;5.50;;;5.10;;
15177;SDS011;7689;53.612;-2.416;2022-08-14T07:13:17;4.40;;;4.10;;
15177;SDS011;7689;53.612;-2.416;2022-08-14T07:15:43;5.32;;;4.82;;
15177;SDS011;7689;53.612;-2.416;2022-08-14T07:18:11;5.28;;;4.05;;
15177;SDS011;7689;53.612;-2.416;2022-08-14T07:20:37;4.50;;;4.07;;
15177;SDS011;7689;53.612;-2.416;2022-08-14T07:23:05;4.95;;;4.40;;
15177;SDS011;7689;53.612;-2.416;2022-08-14T07:25:32;4.75;;;4.38;;
15177;SDS011;7689;53.612;-2.416;2022-08-14T07:27:58;5.60;;;4.50;;
15177;SDS011;7689;53.612;-2.416;2022-08-14T07:30:24;4.50;;;4.10;;
15177;SDS011;7689;53.612;-2.416;2022-08-14T07:32:49;6.35;;;4.00;;
15177;SDS011;7689;53.612;-2.416;2022-08-14T07:35:16;4.28;;;3.92;;
15177;SDS011;7689;53.612;-2.416;2022-08-14T07:37:42;4.50;;;3.83;;
15177;SDS011;7689;53.612;-2.416;2022-08-14T07:40:11;4.25;;;3.92;;
15177;SDS011;7689;53.612;-2.416;2022-08-14T07:42:36;4.75;;;3.90;;
15177;SDS011;7689;53.612;-2.416;2022-08-14T07:45:02;7.45;;;4.15;;
15177;SDS011;7689;53.612;-2.416;2022-08-14T07:47:28;4.57;;;4.18;;
15177;SDS011;7689;53.612;-2.416;2022-08-14T07:52:26;4.35;;;4.00;;
15177;SDS011;7689;53.612;-2.416;2022-08-14T07:54:53;4.70;;;4.32;;
15177;SDS011;7689;53.612;-2.416;2022-08-14T07:57:19;4.03;;;3.70;;
15177;SDS011;7689;53.612;-2.416;2022-08-14T07:59:45;4.50;;;4.10;;
15177;SDS011;7689;53.612;-2.416;2022-08-14T08:02:13;4.47;;;3.92;;
15177;SDS011;7689;53.612;-2.416;2022-08-14T08:04:42;5.13;;;3.92;;
15177;SDS011;7689;53.612;-2.416;2022-08-14T08:07:10;4.18;;;3.88;;
15177;SDS011;7689;53.612;-2.416;2022-08-14T08:09:37;3.90;;;3.60;;
15177;SDS011;7689;53.612;-2.416;2022-08-14T08:12:09;4.80;;;3.83;;
15177;SDS011;7689;53.612;-2.416;2022-08-14T08:14:37;4.05;;;3.70;;
15177;SDS011;7689;53.612;-2.416;2022-08-14T08:17:07;4.00;;;3.70;;
15177;SDS011;7689;53.612;-2.416;2022-08-14T08:19:33;5.40;;;3.85;;
15177;SDS011;7689;53.612;-2.416;2022-08-14T08:21:59;4.43;;;4.03;;
15177;SDS011;7689;53.612;-2.416;2022-08-14T08:24:27;4.28;;;3.97;;
15177;SDS011;7689;53.612;-2.416;2022-08-14T08:26:53;4.07;;;3.55;;
15177;SDS011;7689;53.612;-2.416;2022-08-14T08:29:22;4.05;;;3.72;;
15177;SDS011;7689;53.612;-2.416;2022-08-14T08:31:51;5.00;;;4.03;;
15177;SDS011;7689;53.612;-2.416;2022-08-14T08:34:17;4.90;;;3.85;;
15177;SDS011;7689;53.612;-2.416;2022-08-14T08:36:43;3.92;;;3.63;;
15177;SDS011;7689;53.612;-2.416;2022-08-14T08:39:10;8.48;;;4.10;;
15177;SDS011;7689;53.612;-2.416;2022-08-14T08:41:43;3.42;;;3.22;;
15177;SDS011;7689;53.612;-2.416;2022-08-14T08:44:11;4.10;;;3.70;;
15177;SDS011;7689;53.612;-2.416;2022-08-14T08:46:37;5.82;;;3.63;;
15177;SDS011;7689;53.612;-2.416;2022-08-14T08:49:04;4.30;;;3.70;;
15177;SDS011;7689;53.612;-2.416;2022-08-14T08:57:09;4.78;;;3.20;;
15177;SDS011;7689;53.612;-2.416;2022-08-14T08:59:34;3.80;;;3.60;;
15177;SDS011;7689;53.612;-2.416;2022-08-14T09:02:03;6.40;;;3.75;;
15177;SDS011;7689;53.612;-2.416;2022-08-14T09:04:38;4.88;;;3.72;;
15177;SDS011;7689;53.612;-2.416;2022-08-14T09:07:06;3.78;;;3.50;;
15177;SDS011;7689;53.612;-2.416;2022-08-14T09:09:32;4.72;;;3.55;;
15177;SDS011;7689;53.612;-2.416;2022-08-14T09:12:00;4.20;;;3.90;;
15177;SDS011;7689;53.612;-2.416;2022-08-14T09:14:28;3.85;;;3.55;;
15177;SDS011;7689;53.612;-2.416;2022-08-14T09:16:55;5.03;;;3.83;;
15177;SDS011;7689;53.612;-2.416;2022-08-14T09:19:23;4.38;;;3.55;;
15177;SDS011;7689;53.612;-2.416;2022-08-14T09:21:49;3.70;;;3.50;;
15177;SDS011;7689;53.612;-2.416;2022-08-14T09:24:14;3.83;;;3.53;;
15177;SDS011;7689;53.612;-2.416;2022-08-14T09:26:41;3.65;;;3.30;;
15177;SDS011;7689;53.612;-2.416;2022-08-14T09:29:08;3.40;;;3.08;;
15177;SDS011;7689;53.612;-2.416;2022-08-14T09:31:35;4.28;;;3.00;;
15177;SDS011;7689;53.612;-2.416;2022-08-14T09:47:47;3.30;;;3.10;;
15177;SDS011;7689;53.612;-2.416;2022-08-14T09:50:18;3.55;;;3.28;;
15177;SDS011;7689;53.612;-2.416;2022-08-14T09:52:57;4.70;;;3.28;;
15177;SDS011;7689;53.612;-2.416;2022-08-14T09:55:27;3.75;;;3.45;;
15177;SDS011;7689;53.612;-2.416;2022-08-14T09:58:07;4.10;;;3.72;;
15177;SDS011;7689;53.612;-2.416;2022-08-14T10:03:11;4.35;;;3.88;;
15177;SDS011;7689;53.612;-2.416;2022-08-14T10:05:48;3.97;;;3.53;;
15177;SDS011;7689;53.612;-2.416;2022-08-14T10:08:19;5.47;;;3.50;;
15177;SDS011;7689;53.612;-2.416;2022-08-14T10:10:45;5.13;;;3.65;;
15177;SDS011;7689;53.612;-2.416;2022-08-14T10:13:21;3.78;;;3.58;;
15177;SDS011;7689;53.612;-2.416;2022-08-14T10:15:49;6.38;;;3.70;;
15177;SDS011;7689;53.612;-2.416;2022-08-14T10:18:17;4.13;;;3.80;;
15177;SDS011;7689;53.612;-2.416;2022-08-14T10:20:57;5.28;;;3.55;;
15177;SDS011;7689;53.612;-2.416;2022-08-14T10:23:28;4.25;;;3.80;;
15177;SDS011;7689;53.612;-2.416;2022-08-14T10:26:08;3.97;;;3.58;;
15177;SDS011;7689;53.612;-2.416;2022-08-14T10:28:52;5.20;;;3.60;;
15177;SDS011;7689;53.612;-2.416;2022-08-14T10:34:22;6.05;;;3.78;;
15177;SDS011;7689;53.612;-2.416;2022-08-14T10:36:44;4.22;;;3.80;;
15177;SDS011;7689;53.612;-2.416;2022-08-14T10:41:43;5.95;;;3.55;;
15177;SDS011;7689;53.612;-2.416;2022-08-14T10:44:16;4.55;;;3.47;;
15177;SDS011;7689;53.612;-2.416;2022-08-14T10:46:52;4.00;;;3.40;;
15177;SDS011;7689;53.612;-2.416;2022-08-14T10:49:32;3.60;;;3.38;;
15177;SDS011;7689;53.612;-2.416;2022-08-14T10:52:03;3.60;;;3.30;;
15177;SDS011;7689;53.612;-2.416;2022-08-14T10:54:40;3.97;;;3.20;;
15177;SDS011;7689;53.612;-2.416;2022-08-14T11:02:38;2.95;;;2.70;;
15177;SDS011;7689;53.612;-2.416;2022-08-14T11:05:16;5.10;;;3.20;;
15177;SDS011;7689;53.612;-2.416;2022-08-14T11:13:34;3.83;;;3.03;;
15177;SDS011;7689;53.612;-2.416;2022-08-14T11:16:05;3.05;;;2.85;;
15177;SDS011;7689;53.612;-2.416;2022-08-14T11:18:31;7.07;;;3.08;;
15177;SDS011;7689;53.612;-2.416;2022-08-14T11:20:57;5.13;;;2.97;;
15177;SDS011;7689;53.612;-2.416;2022-08-14T11:23:25;3.63;;;3.42;;
15177;SDS011;7689;53.612;-2.416;2022-08-14T11:25:52;4.82;;;3.20;;
15177;SDS011;7689;53.612;-2.416;2022-08-14T11:28:21;3.25;;;2.90;;
15177;SDS011;7689;53.612;-2.416;2022-08-14T11:30:49;3.20;;;2.95;;
15177;SDS011;7689;53.612;-2.416;2022-08-14T11:33:17;2.83;;;2.63;;
15177;SDS011;7689;53.612;-2.416;2022-08-14T11:35:55;3.20;;;2.90;;
15177;SDS011;7689;53.612;-2.416;2022-08-14T11:38:26;3.30;;;3.00;;
15177;SDS011;7689;53.612;-2.416;2022-08-14T11:40:53;3.13;;;2.83;;
15177;SDS011;7689;53.612;-2.416;2022-08-14T11:43:21;4.85;;;3.10;;
15177;SDS011;7689;53.612;-2.416;2022-08-14T11:45:50;2.90;;;2.70;;
15177;SDS011;7689;53.612;-2.416;2022-08-14T11:48:17;3.00;;;2.80;;
15177;SDS011;7689;53.612;-2.416;2022-08-14T11:50:45;3.20;;;3.00;;
15177;SDS011;7689;53.612;-2.416;2022-08-14T11:53:24;3.58;;;3.22;;
15177;SDS011;7689;53.612;-2.416;2022-08-14T11:55:58;3.22;;;3.00;;
15177;SDS011;7689;53.612;-2.416;2022-08-14T11:58:29;6.05;;;2.90;;
15177;SDS011;7689;53.612;-2.416;2022-08-14T12:01:07;4.65;;;3.13;;
15177;SDS011;7689;53.612;-2.416;2022-08-14T12:03:43;4.47;;;3.20;;
15177;SDS011;7689;53.612;-2.416;2022-08-14T12:06:14;3.22;;;2.92;;
15177;SDS011;7689;53.612;-2.416;2022-08-14T12:08:41;6.68;;;2.95;;
15177;SDS011;7689;53.612;-2.416;2022-08-14T12:11:09;3.58;;;2.90;;
15177;SDS011;7689;53.612;-2.416;2022-08-14T12:13:40;5.20;;;3.00;;
15177;SDS011;7689;53.612;-2.416;2022-08-14T12:16:08;6.70;;;3.50;;
15177;SDS011;7689;53.612;-2.416;2022-08-14T12:18:41;4.28;;;2.95;;
15177;SDS011;7689;53.612;-2.416;2022-08-14T12:21:13;3.22;;;3.00;;
15177;SDS011;7689;53.612;-2.416;2022-08-14T12:23:41;3.30;;;3.10;;
15177;SDS011;7689;53.612;-2.416;2022-08-14T12:26:09;4.32;;;3.28;;
15177;SDS011;7689;53.612;-2.416;2022-08-14T12:28:44;3.70;;;3.40;;
15177;SDS011;7689;53.612;-2.416;2022-08-14T12:31:15;5.18;;;3.67;;
15177;SDS011;7689;53.612;-2.416;2022-08-14T12:33:54;3.75;;;3.20;;
15177;SDS011;7689;53.612;-2.416;2022-08-14T12:36:25;3.30;;;3.10;;
15177;SDS011;7689;53.612;-2.416;2022-08-14T12:38:55;3.30;;;3.00;;
15177;SDS011;7689;53.612;-2.416;2022-08-14T12:41:25;2.90;;;2.70;;
15177;SDS011;7689;53.612;-2.416;2022-08-14T12:44:04;4.60;;;3.20;;
15177;SDS011;7689;53.612;-2.416;2022-08-14T12:48:59;8.55;;;3.05;;
15177;SDS011;7689;53.612;-2.416;2022-08-14T12:51:30;4.18;;;3.00;;
15177;SDS011;7689;53.612;-2.416;2022-08-14T12:53:56;3.92;;;3.30;;
15177;SDS011;7689;53.612;-2.416;2022-08-14T12:56:23;3.97;;;3.42;;
15177;SDS011;7689;53.612;-2.416;2022-08-14T12:58:53;3.33;;;3.00;;
15177;SDS011;7689;53.612;-2.416;2022-08-14T13:01:23;6.90;;;3.45;;
15177;SDS011;7689;53.612;-2.416;2022-08-14T13:03:52;4.00;;;3.38;;
15177;SDS011;7689;53.612;-2.416;2022-08-14T13:06:33;5.07;;;3.30;;
15177;SDS011;7689;53.612;-2.416;2022-08-14T13:08:59;3.47;;;3.17;;
15177;SDS011;7689;53.612;-2.416;2022-08-14T13:11:28;3.65;;;3.20;;
15177;SDS011;7689;53.612;-2.416;2022-08-14T13:14:08;4.07;;;3.25;;
15177;SDS011;7689;53.612;-2.416;2022-08-14T13:16:36;3.65;;;3.28;;
15177;SDS011;7689;53.612;-2.416;2022-08-14T13:19:02;5.10;;;3.20;;
15177;SDS011;7689;53.612;-2.416;2022-08-14T13:21:28;3.25;;;2.97;;
15177;SDS011;7689;53.612;-2.416;2022-08-14T13:23:55;3.00;;;2.67;;
15177;SDS011;7689;53.612;-2.416;2022-08-14T13:26:23;3.50;;;3.30;;
15177;SDS011;7689;53.612;-2.416;2022-08-14T13:28:50;5.30;;;3.30;;
15177;SDS011;7689;53.612;-2.416;2022-08-14T13:31:17;3.67;;;3.15;;
15177;SDS011;7689;53.612;-2.416;2022-08-14T13:33:46;3.10;;;2.90;;
15177;SDS011;7689;53.612;-2.416;2022-08-14T13:36:14;2.90;;;2.70;;
15177;SDS011;7689;53.612;-2.416;2022-08-14T13:38:41;3.35;;;3.15;;
15177;SDS011;7689;53.612;-2.416;2022-08-14T13:41:08;3.53;;;3.15;;
15177;SDS011;7689;53.612;-2.416;2022-08-14T13:43:35;4.45;;;2.92;;
15177;SDS011;7689;53.612;-2.416;2022-08-14T13:46:04;3.20;;;2.90;;
15177;SDS011;7689;53.612;-2.416;2022-08-14T13:48:30;3.33;;;2.75;;
15177;SDS011;7689;53.612;-2.416;2022-08-14T13:50:57;3.45;;;2.95;;
15177;SDS011;7689;53.612;-2.416;2022-08-14T13:53:24;3.17;;;2.90;;
15177;SDS011;7689;53.612;-2.416;2022-08-14T13:55:51;2.85;;;2.65;;
15177;SDS011;7689;53.612;-2.416;2022-08-14T13:58:18;3.28;;;2.85;;
15177;SDS011;7689;53.612;-2.416;2022-08-14T14:00:46;2.80;;;2.60;;
15177;SDS011;7689;53.612;-2.416;2022-08-14T14:03:15;3.53;;;2.65;;
15177;SDS011;7689;53.612;-2.416;2022-08-14T14:05:42;10.65;;;3.45;;
15177;SDS011;7689;53.612;-2.416;2022-08-14T14:08:09;2.75;;;2.63;;
15177;SDS011;7689;53.612;-2.416;2022-08-14T14:10:37;3.33;;;3.00;;
15177;SDS011;7689;53.612;-2.416;2022-08-14T14:13:03;5.28;;;3.42;;
15177;SDS011;7689;53.612;-2.416;2022-08-14T14:15:29;4.35;;;2.80;;
15177;SDS011;7689;53.612;-2.416;2022-08-14T14:17:55;6.30;;;3.17;;
15177;SDS011;7689;53.612;-2.416;2022-08-14T14:20:24;4.72;;;3.13;;
15177;SDS011;7689;53.612;-2.416;2022-08-14T14:22:50;3.83;;;3.28;;
15177;SDS011;7689;53.612;-2.416;2022-08-14T14:25:17;5.20;;;2.80;;
15177;SDS011;7689;53.612;-2.416;2022-08-14T14:27:45;4.20;;;2.90;;
15177;SDS011;7689;53.612;-2.416;2022-08-14T14:30:15;2.78;;;2.67;;
15177;SDS011;7689;53.612;-2.416;2022-08-14T14:32:42;5.32;;;3.08;;
15177;SDS011;7689;53.612;-2.416;2022-08-14T14:35:11;3.22;;;2.92;;
15177;SDS011;7689;53.612;-2.416;2022-08-14T14:37:44;4.03;;;3.03;;
15177;SDS011;7689;53.612;-2.416;2022-08-14T14:40:12;5.13;;;3.03;;
15177;SDS011;7689;53.612;-2.416;2022-08-14T14:42:46;3.40;;;3.20;;
15177;SDS011;7689;53.612;-2.416;2022-08-14T14:45:15;2.88;;;2.78;;
15177;SDS011;7689;53.612;-2.416;2022-08-14T14:47:44;4.47;;;3.10;;
15177;SDS011;7689;53.612;-2.416;2022-08-14T14:50:20;4.32;;;2.97;;
15177;SDS011;7689;53.612;-2.416;2022-08-14T14:52:47;3.50;;;3.20;;
15177;SDS011;7689;53.612;-2.416;2022-08-14T14:55:14;3.17;;;2.88;;
15177;SDS011;7689;53.612;-2.416;2022-08-14T14:57:41;3.80;;;2.92;;
15177;SDS011;7689;53.612;-2.416;2022-08-14T15:00:09;3.10;;;2.90;;
15177;SDS011;7689;53.612;-2.416;2022-08-14T15:02:38;4.07;;;3.28;;
15177;SDS011;7689;53.612;-2.416;2022-08-14T15:05:06;5.00;;;3.40;;
15177;SDS011;7689;53.612;-2.416;2022-08-14T15:07:32;3.38;;;3.17;;
15177;SDS011;7689;53.612;-2.416;2022-08-14T15:09:59;5.32;;;3.38;;
15177;SDS011;7689;53.612;-2.416;2022-08-14T15:12:25;2.72;;;2.63;;
15177;SDS011;7689;53.612;-2.416;2022-08-14T15:14:51;6.10;;;3.20;;
15177;SDS011;7689;53.612;-2.416;2022-08-14T15:17:16;3.80;;;3.50;;
15177;SDS011;7689;53.612;-2.416;2022-08-14T15:19:43;3.33;;;3.00;;
15177;SDS011;7689;53.612;-2.416;2022-08-14T15:22:09;3.35;;;3.00;;
15177;SDS011;7689;53.612;-2.416;2022-08-14T15:24:35;5.18;;;3.40;;
15177;SDS011;7689;53.612;-2.416;2022-08-14T15:27:01;5.35;;;2.95;;
15177;SDS011;7689;53.612;-2.416;2022-08-14T15:29:30;5.93;;;2.90;;
15177;SDS011;7689;53.612;-2.416;2022-08-14T15:31:57;5.03;;;3.10;;
15177;SDS011;7689;53.612;-2.416;2022-08-14T15:34:23;4.15;;;2.90;;
15177;SDS011;7689;53.612;-2.416;2022-08-14T15:36:49;3.33;;;3.10;;
15177;SDS011;7689;53.612;-2.416;2022-08-14T15:39:15;3.20;;;3.00;;
15177;SDS011;7689;53.612;-2.416;2022-08-14T15:41:40;4.32;;;3.25;;
15177;SDS011;7689;53.612;-2.416;2022-08-14T15:44:06;3.30;;;2.97;;
15177;SDS011;7689;53.612;-2.416;2022-08-14T15:46:34;3.63;;;3.22;;